createdAt,value
2022-11-10T00:01:44.369Z,12.50
2022-11-10T00:04:31.244Z,12.54
2022-11-10T00:07:17.513Z,12.58
2022-11-10T00:10:04.470Z,12.63
2022-11-10T00:12:50.063Z,12.64
2022-11-10T00:15:44.310Z,12.61
2022-11-10T00:18:29.976Z,12.62
2022-11-10T00:21:18.151Z,12.63
2022-11-10T00:24:06.877Z,12.65
2022-11-10T00:26:52.581Z,12.65
2022-11-10T00:29:37.898Z,12.65
2022-11-10T00:32:26.528Z,12.68
2022-11-10T00:35:12.280Z,12.70
2022-11-10T00:38:02.361Z,12.69
2022-11-10T00:40:48.332Z,12.70
2022-11-10T00:43:36.875Z,12.72
2022-11-10T00:46:23.206Z,12.68
2022-11-10T00:49:08.628Z,12.66
2022-11-10T00:51:54.448Z,12.68
2022-11-10T00:54:46.441Z,12.69
2022-11-10T00:57:31.699Z,12.70
2022-11-10T01:00:18.001Z,12.73
2022-11-10T01:03:13.278Z,12.74
2022-11-10T01:06:05.300Z,12.78
2022-11-10T01:08:50.548Z,12.77
2022-11-10T01:11:41.729Z,12.79
2022-11-10T01:14:28.706Z,12.76
2022-11-10T01:17:14.271Z,12.76
2022-11-10T01:20:00.674Z,12.74
2022-11-10T01:22:46.600Z,12.75
2022-11-10T01:25:32.115Z,12.69
2022-11-10T01:28:19.745Z,12.54
2022-11-10T01:31:18.950Z,12.20
2022-11-10T01:34:04.738Z,12.22
2022-11-10T01:36:50.342Z,12.14
2022-11-10T01:39:36.518Z,12.15
2022-11-10T01:42:27.793Z,12.24
2022-11-10T01:45:54.563Z,12.27
2022-11-10T01:48:46.715Z,12.27
2022-11-10T01:51:39.457Z,12.24
2022-11-10T01:54:30.602Z,12.25
2022-11-10T01:57:17.629Z,12.22
2022-11-10T02:00:05.036Z,12.18
2022-11-10T02:03:03.529Z,12.15
2022-11-10T02:05:50.543Z,12.04
2022-11-10T02:08:36.831Z,11.89
2022-11-10T02:11:23.445Z,11.79
2022-11-10T02:14:09.854Z,11.76
2022-11-10T02:16:55.212Z,11.80
2022-11-10T02:19:42.529Z,11.76
2022-11-10T02:22:29.407Z,11.66
2022-11-10T02:25:21.250Z,11.62
2022-11-10T02:28:07.478Z,11.57
2022-11-10T02:30:54.447Z,11.58
2022-11-10T02:33:40.398Z,11.58
2022-11-10T02:36:25.814Z,11.54
2022-11-10T02:39:12.882Z,11.45
2022-11-10T02:41:59.065Z,11.46
2022-11-10T02:44:44.403Z,11.41
2022-11-10T02:47:30.214Z,11.39
2022-11-10T02:50:16.533Z,11.39
2022-11-10T02:53:02.502Z,11.38
2022-11-10T02:55:49.508Z,11.37
2022-11-10T02:58:34.933Z,11.20
2022-11-10T03:01:20.879Z,11.15
2022-11-10T03:04:06.602Z,11.09
2022-11-10T03:06:52.269Z,11.06
2022-11-10T03:09:37.982Z,10.79
2022-11-10T03:12:24.908Z,10.65
2022-11-10T03:15:10.751Z,10.58
2022-11-10T03:17:56.886Z,10.59
2022-11-10T03:20:42.327Z,10.42
2022-11-10T03:23:28.003Z,10.41
2022-11-10T03:26:13.799Z,10.36
2022-11-10T03:29:00.673Z,10.35
2022-11-10T03:31:46.445Z,10.27
2022-11-10T03:34:32.333Z,10.01
2022-11-10T03:37:18.619Z,9.89
2022-11-10T03:40:05.546Z,9.79
2022-11-10T03:42:51.660Z,9.81
2022-11-10T03:45:38.662Z,9.72
2022-11-10T03:48:24.045Z,9.79
2022-11-10T03:51:09.452Z,9.77
2022-11-10T03:53:54.830Z,9.76
2022-11-10T03:56:40.101Z,9.71
2022-11-10T03:59:25.553Z,9.76
2022-11-10T04:02:12.434Z,9.82
2022-11-10T04:04:58.325Z,9.85
2022-11-10T04:07:44.083Z,9.82
2022-11-10T04:10:31.664Z,9.66
2022-11-10T04:13:17.352Z,9.61
2022-11-10T04:16:03.099Z,9.56
2022-11-10T04:18:50.035Z,9.54
2022-11-10T04:21:35.643Z,9.43
2022-11-10T04:24:21.484Z,9.44
2022-11-10T04:27:06.961Z,9.43
2022-11-10T04:29:52.837Z,9.49
2022-11-10T04:32:38.442Z,9.53
2022-11-10T04:35:24.993Z,9.57
2022-11-10T04:38:10.609Z,9.56
2022-11-10T04:40:56.930Z,9.52
2022-11-10T04:43:44.280Z,9.54
2022-11-10T04:46:32.914Z,9.35
2022-11-10T04:49:18.922Z,9.28
2022-11-10T04:52:06.331Z,9.11
2022-11-10T04:54:52.192Z,8.82
2022-11-10T04:57:37.613Z,8.71
2022-11-10T05:00:23.543Z,8.80
2022-11-10T05:03:14.841Z,8.81
2022-11-10T05:06:10.923Z,8.84
2022-11-10T05:09:08.172Z,8.88
2022-11-10T05:11:56.678Z,8.93
2022-11-10T05:14:43.029Z,8.88
2022-11-10T05:17:29.818Z,8.93
2022-11-10T05:20:16.060Z,8.88
2022-11-10T05:23:02.808Z,8.87
2022-11-10T05:25:50.401Z,8.87
2022-11-10T05:28:37.375Z,8.95
2022-11-10T05:31:31.423Z,8.90
2022-11-10T05:34:17.570Z,8.92
2022-11-10T05:37:03.601Z,8.73
2022-11-10T05:39:52.957Z,8.72
2022-11-10T05:42:44.620Z,8.74
2022-11-10T05:45:35.366Z,8.83
2022-11-10T05:48:24.340Z,8.89
2022-11-10T05:51:12.372Z,8.73
2022-11-10T05:54:12.989Z,8.75
2022-11-10T05:56:58.706Z,8.85
2022-11-10T05:59:54.495Z,8.91
2022-11-10T06:02:42.404Z,8.97
2022-11-10T06:05:31.423Z,9.02
2022-11-10T06:08:19.920Z,9.02
2022-11-10T06:11:07.143Z,8.89
2022-11-10T06:13:53.226Z,8.87
2022-11-10T06:16:44.192Z,8.93
2022-11-10T06:19:44.468Z,8.90
2022-11-10T06:22:34.484Z,8.99
2022-11-10T06:26:08.124Z,9.04
2022-11-10T06:28:39.261Z,9.14
2022-11-10T06:31:35.681Z,9.24
2022-11-10T06:34:32.393Z,9.30
2022-11-10T06:40:47.333Z,9.47
2022-11-10T06:44:14.734Z,9.69
2022-11-10T06:47:02.218Z,9.84
2022-11-10T06:50:10.739Z,10.30
2022-11-10T06:53:00.114Z,10.84
2022-11-10T06:56:03.849Z,11.43
2022-11-10T06:58:59.509Z,11.92
2022-11-10T07:05:22.789Z,12.63
2022-11-10T07:08:12.459Z,12.55
2022-11-10T07:11:00.788Z,12.60
2022-11-10T09:16:38.659Z,23.30
2022-11-10T09:19:24.555Z,23.63
2022-11-10T09:22:10.366Z,24.16
2022-11-10T09:24:56.558Z,22.55
2022-11-10T09:27:42.347Z,23.13
2022-11-10T09:30:28.593Z,23.64
2022-11-10T09:33:16.846Z,24.16
2022-11-10T09:36:06.718Z,24.61
2022-11-10T09:38:52.545Z,24.41
2022-11-10T09:41:42.698Z,25.32
2022-11-10T09:44:35.749Z,25.56
2022-11-10T09:47:56.248Z,26.15
2022-11-10T09:50:49.440Z,25.54
2022-11-10T09:53:43.344Z,26.22
2022-11-10T09:56:35.300Z,26.78
2022-11-10T09:59:27.646Z,26.95
2022-11-10T10:02:30.512Z,27.02
2022-11-10T10:05:58.349Z,27.15
2022-11-10T10:08:59.100Z,27.46
2022-11-10T10:12:03.628Z,27.17
2022-11-10T10:15:15.194Z,26.64
2022-11-10T10:18:22.980Z,27.12
2022-11-10T10:21:35.128Z,25.81
2022-11-10T10:24:24.947Z,25.90
2022-11-10T10:27:19.994Z,26.39
2022-11-10T10:30:13.950Z,25.58
2022-11-10T10:33:15.671Z,24.22
2022-11-10T10:36:09.500Z,25.65
2022-11-10T10:39:02.916Z,23.89
2022-11-10T10:41:48.580Z,24.92
2022-11-10T10:44:37.729Z,23.86
2022-11-10T10:47:37.324Z,25.60
2022-11-10T10:50:28.769Z,26.28
2022-11-10T10:53:18.603Z,26.27
2022-11-10T10:56:17.537Z,27.10
2022-11-10T10:59:05.313Z,27.73
2022-11-10T11:01:54.164Z,27.25
2022-11-10T11:04:39.731Z,27.49
2022-11-10T11:24:24.427Z,22.84
2022-11-10T11:27:18.625Z,24.88
2022-11-10T11:30:13.552Z,23.66
2022-11-10T11:33:25.167Z,24.60
2022-11-10T11:36:30.600Z,23.99
2022-11-10T11:39:35.341Z,24.86
2022-11-10T11:42:42.240Z,24.35
2022-11-10T11:45:45.535Z,24.14
2022-11-10T11:48:51.377Z,24.23
2022-11-10T11:51:48.603Z,20.15
2022-11-10T11:54:59.620Z,21.23
2022-11-10T11:58:08.686Z,22.48
2022-11-10T12:01:18.960Z,21.86
2022-11-10T12:04:49.924Z,21.20
2022-11-10T12:07:58.073Z,21.02
2022-11-10T12:11:09.127Z,20.83
2022-11-10T12:14:12.018Z,20.67
2022-11-10T12:17:10.456Z,20.36
2022-11-10T12:20:21.592Z,20.17
2022-11-10T12:23:21.227Z,19.88
2022-11-10T12:26:27.380Z,19.95
2022-11-10T12:29:26.628Z,19.82
2022-11-10T12:32:21.494Z,19.55
2022-11-10T12:35:18.352Z,19.46
2022-11-10T12:38:11.872Z,19.42
2022-11-10T12:41:06.969Z,19.32
2022-11-10T12:44:08.195Z,18.97
2022-11-10T12:46:58.512Z,18.91
2022-11-10T12:50:01.832Z,18.83
2022-11-10T12:52:55.048Z,18.73
2022-11-10T12:55:47.106Z,18.69
2022-11-10T12:58:34.141Z,18.58
2022-11-10T13:05:32.405Z,18.52
2022-11-10T13:08:35.940Z,18.44
2022-11-10T13:11:27.849Z,18.50
2022-11-10T13:14:24.576Z,18.28
2022-11-10T13:17:55.054Z,18.10
2022-11-10T13:20:52.511Z,18.08
2022-11-10T13:24:41.559Z,18.02
2022-11-10T13:27:52.500Z,18.03
2022-11-10T13:30:44.194Z,17.97
2022-11-10T13:33:36.328Z,17.78
2022-11-10T13:36:36.833Z,17.76
2022-11-10T13:39:26.852Z,17.73
2022-11-10T13:42:22.244Z,17.64
2022-11-10T13:45:31.545Z,17.58
2022-11-10T13:48:47.460Z,17.56
2022-11-10T13:51:45.426Z,17.40
2022-11-10T13:55:05.881Z,17.41
2022-11-10T13:58:02.031Z,17.42
2022-11-10T14:01:11.168Z,17.24
2022-11-10T14:04:00.994Z,17.12
2022-11-10T14:06:52.776Z,17.10
2022-11-10T14:09:42.946Z,17.12
2022-11-10T14:12:45.560Z,17.16
2022-11-10T14:15:41.894Z,17.11
2022-11-10T14:18:38.966Z,17.09
2022-11-10T14:21:45.442Z,17.05
2022-11-10T14:24:38.638Z,16.83
2022-11-10T14:27:28.462Z,16.72
2022-11-10T14:30:24.312Z,16.66
2022-11-10T14:33:14.550Z,16.68
2022-11-10T14:36:04.141Z,16.58
2022-11-10T14:38:52.736Z,16.41
2022-11-10T14:41:49.974Z,16.26
2022-11-10T14:44:35.831Z,16.18
2022-11-10T14:47:28.275Z,16.09
2022-11-10T14:50:22.227Z,16.04
2022-11-10T14:53:22.016Z,15.99
2022-11-10T14:56:19.137Z,15.90
2022-11-10T14:59:14.933Z,15.83
2022-11-10T15:02:10.674Z,15.74
2022-11-10T15:05:01.263Z,15.62
2022-11-10T15:07:51.277Z,15.59
2022-11-10T15:10:52.455Z,15.54
2022-11-10T15:13:39.940Z,15.44
2022-11-10T15:16:28.923Z,15.39
2022-11-10T15:19:26.546Z,15.34
2022-11-10T15:22:19.253Z,15.26
2022-11-10T15:25:15.721Z,15.17
2022-11-10T15:28:06.234Z,15.12
2022-11-10T15:30:57.262Z,15.08
2022-11-10T15:33:47.984Z,15.04
2022-11-10T15:36:36.978Z,14.98
2022-11-10T15:39:24.200Z,14.94
2022-11-10T15:42:15.284Z,14.86
2022-11-10T15:45:00.643Z,14.78
2022-11-10T15:47:47.491Z,14.69
2022-11-10T15:50:33.682Z,14.57
2022-11-10T15:54:08.894Z,14.44
2022-11-10T16:01:46.909Z,14.10
2022-11-10T16:04:59.926Z,14.01
2022-11-10T16:08:27.111Z,13.96
2022-11-10T16:11:31.087Z,13.83
2022-11-10T16:14:26.643Z,13.80
2022-11-10T16:17:16.629Z,13.75
2022-11-10T16:20:22.059Z,13.69
2022-11-10T16:23:13.110Z,13.52
2022-11-10T16:26:15.122Z,13.30
2022-11-10T16:29:17.078Z,12.91
2022-11-10T16:32:04.087Z,12.72
2022-11-10T16:34:55.319Z,12.57
2022-11-10T16:37:51.818Z,12.36
2022-11-10T16:40:38.200Z,12.02
2022-11-10T16:43:40.603Z,11.81
2022-11-10T16:46:31.063Z,11.66
2022-11-10T16:49:37.265Z,11.65
2022-11-10T17:02:01.056Z,11.92
2022-11-10T17:05:51.132Z,11.97
2022-11-10T17:11:57.948Z,12.09
2022-11-10T17:14:45.184Z,11.93
2022-11-10T17:17:35.333Z,11.75
2022-11-10T17:20:28.526Z,11.56
2022-11-10T17:23:19.752Z,11.48
2022-11-10T17:26:08.442Z,11.30
2022-11-10T17:28:54.314Z,11.08
2022-11-10T17:31:40.319Z,11.13
2022-11-10T17:34:28.540Z,11.24
2022-11-10T17:37:19.051Z,11.34
2022-11-10T17:40:19.702Z,11.40
2022-11-10T17:43:10.751Z,11.23
2022-11-10T17:46:01.091Z,11.04
2022-11-10T17:48:46.785Z,11.00
2022-11-10T17:51:35.859Z,11.04
2022-11-10T17:54:24.235Z,10.93
2022-11-10T17:57:11.236Z,10.89
2022-11-10T17:59:57.296Z,10.74
2022-11-10T18:02:44.092Z,10.53
2022-11-10T18:05:29.740Z,10.38
2022-11-10T18:08:17.916Z,10.38
2022-11-10T18:11:03.398Z,10.65
2022-11-10T18:13:49.214Z,10.83
2022-11-10T18:16:34.970Z,10.92
2022-11-10T18:19:20.295Z,11.03
2022-11-10T18:22:06.413Z,11.11
2022-11-10T18:24:53.417Z,11.10
2022-11-10T18:27:39.004Z,10.72
2022-11-10T18:30:24.811Z,10.63
2022-11-10T18:33:12.045Z,10.46
2022-11-10T18:35:59.207Z,10.51
2022-11-10T18:38:44.630Z,10.65
2022-11-10T18:41:31.628Z,10.71
2022-11-10T18:44:18.793Z,10.61
2022-11-10T18:47:05.425Z,10.47
2022-11-10T18:49:50.540Z,10.12
2022-11-10T18:52:36.107Z,10.28
2022-11-10T18:55:21.849Z,10.49
2022-11-10T18:58:10.301Z,10.36
2022-11-10T19:01:03.068Z,10.35
2022-11-10T19:03:49.693Z,10.28
2022-11-10T19:06:36.447Z,10.38
2022-11-10T19:09:25.594Z,10.34
2022-11-10T19:12:12.970Z,10.10
2022-11-10T19:15:00.673Z,10.01
2022-11-10T19:17:46.636Z,9.97
2022-11-10T19:20:35.653Z,9.89
2022-11-10T19:23:21.822Z,9.62
2022-11-10T19:26:10.733Z,9.50
2022-11-10T19:28:56.753Z,9.67
2022-11-10T19:31:43.814Z,9.81
2022-11-10T19:34:29.822Z,9.90
2022-11-10T19:37:15.999Z,9.78
2022-11-10T19:40:05.057Z,9.81
2022-11-10T19:42:55.838Z,9.84
2022-11-10T19:45:44.451Z,9.84
2022-11-10T19:48:32.576Z,9.87
2022-11-10T19:51:19.140Z,9.77
2022-11-10T19:54:04.780Z,9.72
2022-11-10T19:56:51.388Z,9.65
2022-11-10T19:59:36.666Z,9.59
2022-11-10T20:02:22.356Z,9.62
2022-11-10T20:05:09.005Z,9.61
2022-11-10T20:07:54.642Z,9.48
2022-11-10T20:10:42.817Z,9.31
2022-11-10T20:13:29.392Z,9.30
2022-11-10T20:16:14.944Z,9.36
2022-11-10T20:19:00.959Z,9.42
2022-11-10T20:22:00.840Z,9.34
2022-11-10T20:24:50.924Z,9.21
2022-11-10T20:27:37.635Z,9.14
2022-11-10T20:30:32.153Z,9.16
2022-11-10T20:33:21.049Z,9.17
2022-11-10T20:36:11.033Z,9.17
2022-11-10T20:39:00.731Z,9.22
2022-11-10T20:41:46.865Z,9.23
2022-11-10T20:44:32.947Z,9.25
2022-11-10T20:51:21.226Z,9.25
2022-11-10T20:58:35.636Z,9.03
2022-11-10T21:01:21.627Z,8.92
2022-11-10T21:04:11.457Z,8.66
2022-11-10T21:07:23.737Z,8.63
2022-11-10T21:10:23.055Z,8.70
2022-11-10T21:13:08.475Z,8.73
2022-11-10T21:15:56.768Z,8.73
2022-11-10T21:18:45.767Z,8.80
2022-11-10T21:21:31.831Z,8.82
2022-11-10T21:24:21.883Z,8.77
2022-11-10T21:27:10.279Z,8.63
2022-11-10T21:29:56.590Z,8.60
2022-11-10T21:32:42.188Z,8.64
2022-11-10T21:35:28.100Z,8.70
2022-11-10T21:38:14.020Z,8.75
2022-11-10T21:40:59.978Z,8.79
2022-11-10T21:43:47.153Z,8.74
2022-11-10T21:46:32.883Z,8.66
2022-11-10T21:49:18.324Z,8.30
2022-11-10T21:52:04.211Z,7.97
2022-11-10T21:54:50.261Z,7.82
2022-11-10T21:57:36.378Z,7.75
2022-11-10T22:00:23.373Z,7.93
2022-11-10T22:03:09.053Z,8.08
2022-11-10T22:05:54.459Z,8.18
2022-11-10T22:08:42.389Z,8.25
2022-11-10T22:11:27.790Z,8.36
2022-11-10T22:14:13.961Z,8.42
2022-11-10T22:17:01.032Z,8.29
2022-11-10T22:19:46.385Z,8.33
2022-11-10T22:22:31.870Z,8.35
2022-11-10T22:25:17.453Z,8.36
2022-11-10T22:28:03.733Z,8.38
2022-11-10T22:30:49.498Z,8.43
2022-11-10T22:33:39.522Z,8.48
2022-11-10T22:36:24.798Z,8.39
2022-11-10T22:39:16.279Z,8.29
2022-11-10T22:42:01.840Z,8.11
2022-11-10T22:44:47.617Z,8.05
2022-11-10T22:47:33.228Z,8.05
2022-11-10T22:50:20.592Z,8.02
2022-11-10T22:53:05.868Z,7.76
2022-11-10T22:55:51.627Z,7.73
2022-11-10T22:58:37.911Z,7.60
2022-11-10T23:01:23.572Z,7.61
2022-11-10T23:04:10.736Z,7.70
2022-11-10T23:06:58.080Z,7.82
2022-11-10T23:09:43.555Z,7.96
2022-11-10T23:12:28.884Z,8.01
2022-11-10T23:15:14.670Z,8.09
2022-11-10T23:18:06.297Z,8.11
2022-11-10T23:20:57.226Z,8.13
2022-11-10T23:23:46.521Z,8.12
2022-11-10T23:26:31.910Z,7.77
2022-11-10T23:29:17.824Z,7.76
2022-11-10T23:32:04.825Z,7.76
2022-11-10T23:34:51.331Z,7.76
2022-11-10T23:37:36.975Z,7.77
2022-11-10T23:40:25.179Z,7.82
2022-11-10T23:43:11.217Z,7.84
2022-11-10T23:46:07.188Z,7.62
2022-11-10T23:48:52.780Z,7.34
2022-11-10T23:51:38.770Z,7.24
2022-11-10T23:54:24.485Z,7.22
2022-11-10T23:57:12.187Z,7.28
2022-11-10T23:59:57.829Z,7.27
